Main page
METAR-TAF:

METAR-TAF

Airports :

Sønderborg Airport

Sønderborg, Denmark

latitude: 54-58N, longitude: 009-47E, elevation: 7 m

Current weather observation

The report was made 30 minutes ago, at 22:20 UTC
Wind 6 kt from the South, varying between Southeast and Southwest
Temperature 16°C
Humidity 88%
Pressure 1010 hPa
Visibility 10 km or more
light rain,

METAR: EKSB 142220Z AUTO 18006KT 140V220 9999 -RA FEW026/// OVC072/// 16/14 Q1010

Time: 00:50 (22:50 UTC)

Forecast

The report was made 10 hours and 38 minutes ago, at 12:12 UTC
Forecast valid from 14 at 13 UTC to 14 at 17 UTC
Wind 12 kt from the Southwest
Visibility 10 km or more
Broken clouds at a height of 2000 ft
Temporary
from 14 at 13 UTC to 14 at 17 UTC
Visibility: 4000 m
Scattered clouds at a height of 2000 ft, Cumulonimbus.
rain showers,

TAF: EKSB 141212Z 1413/1417 23012KT 9999 BKN020 TEMPO 1413/1417 4000 SHRA SCT020CB

Weather observations and forecasts of more than 4000 airports (METAR and TAF reports).

The available stations are represented by yellow and red dots on the map.

Hover mouse over dot to see the name of the station.

Then click to see weather observations and forecasts.

To change the map : click on the green buttons with a black cross to zoom in, on the green button with a dash to zoom out, or on the green arrows for adjacent maps.


METAR-TAF: